createdAt,value
2022-12-19T00:01:55.505Z,1.50
2022-12-19T00:04:22.711Z,1.40
2022-12-19T00:06:49.750Z,1.50
2022-12-19T00:09:17.123Z,1.50
2022-12-19T00:11:45.288Z,1.50
2022-12-19T00:14:12.320Z,1.40
2022-12-19T00:16:39.578Z,1.40
2022-12-19T00:19:07.825Z,1.40
2022-12-19T00:21:35.741Z,1.40
2022-12-19T00:24:18.452Z,1.40
2022-12-19T00:26:51.947Z,1.50
2022-12-19T00:29:19.098Z,1.40
2022-12-19T00:31:49.765Z,1.40
2022-12-19T00:34:17.040Z,1.40
2022-12-19T00:36:44.107Z,1.40
2022-12-19T00:39:11.961Z,1.40
2022-12-19T00:41:42.147Z,1.40
2022-12-19T00:44:17.129Z,1.30
2022-12-19T00:46:52.758Z,1.40
2022-12-19T00:49:20.588Z,1.30
2022-12-19T00:51:47.839Z,1.30
2022-12-19T00:54:15.041Z,1.30
2022-12-19T00:56:43.345Z,1.30
2022-12-19T00:59:11.607Z,1.30
2022-12-19T01:01:40.613Z,1.30
2022-12-19T01:04:28.265Z,1.30
2022-12-19T01:06:59.784Z,1.30
2022-12-19T01:09:32.379Z,1.20
2022-12-19T01:12:18.221Z,1.30
2022-12-19T01:14:45.549Z,1.20
2022-12-19T01:17:12.789Z,1.20
2022-12-19T01:19:43.952Z,1.20
2022-12-19T01:22:12.213Z,1.30
2022-12-19T01:24:39.700Z,1.20
2022-12-19T01:27:09.285Z,1.20
2022-12-19T01:29:36.680Z,1.20
2022-12-19T01:32:10.219Z,1.30
2022-12-19T01:34:37.393Z,1.20
2022-12-19T01:37:04.403Z,1.20
2022-12-19T01:39:31.357Z,1.20
2022-12-19T01:42:00.895Z,1.20
2022-12-19T01:44:28.959Z,1.10
2022-12-19T01:46:59.682Z,1.10
2022-12-19T01:49:31.874Z,1.10
2022-12-19T01:52:02.959Z,1.20
2022-12-19T01:54:35.062Z,1.20
2022-12-19T01:57:02.704Z,1.10
2022-12-19T01:59:52.995Z,1.20
2022-12-19T02:02:26.130Z,1.10
2022-12-19T02:04:54.438Z,1.10
2022-12-19T02:07:22.873Z,1.10
2022-12-19T02:09:57.092Z,1.10
2022-12-19T02:12:28.419Z,1.00
2022-12-19T02:15:03.226Z,1.00
2022-12-19T02:17:46.490Z,1.00
2022-12-19T02:20:24.638Z,1.00
2022-12-19T02:22:54.832Z,1.00
2022-12-19T02:25:21.852Z,0.90
2022-12-19T02:27:52.186Z,0.90
2022-12-19T02:30:37.892Z,0.90
2022-12-19T02:33:09.266Z,0.90
2022-12-19T02:35:44.448Z,0.90
2022-12-19T02:38:26.953Z,0.90
2022-12-19T02:40:55.611Z,0.90
2022-12-19T02:43:23.677Z,0.80
2022-12-19T02:45:51.868Z,0.80
2022-12-19T02:48:19.762Z,0.90
2022-12-19T02:50:50.427Z,0.90
2022-12-19T02:53:18.231Z,0.90
2022-12-19T02:55:50.913Z,0.80
2022-12-19T02:58:27.148Z,0.90
2022-12-19T03:01:06.092Z,0.80
2022-12-19T03:03:47.865Z,0.80
2022-12-19T03:06:35.189Z,0.90
2022-12-19T03:09:08.421Z,0.80
2022-12-19T03:11:36.784Z,0.80
2022-12-19T03:14:08.818Z,0.80
2022-12-19T03:16:36.812Z,0.80
2022-12-19T03:19:04.601Z,0.80
2022-12-19T03:21:39.231Z,0.80
2022-12-19T03:24:08.493Z,0.80
2022-12-19T03:26:38.361Z,0.80
2022-12-19T03:29:12.499Z,0.80
2022-12-19T03:31:40.079Z,0.80
2022-12-19T03:34:10.672Z,0.80
2022-12-19T03:36:45.519Z,0.70
2022-12-19T03:39:17.551Z,0.70
2022-12-19T03:42:03.348Z,0.70
2022-12-19T03:44:32.704Z,0.80
2022-12-19T03:47:15.683Z,0.70
2022-12-19T03:49:42.801Z,0.70
2022-12-19T03:52:25.110Z,0.80
2022-12-19T03:55:04.865Z,0.80
2022-12-19T03:57:55.053Z,0.70
2022-12-19T04:00:25.371Z,0.70
2022-12-19T04:02:53.642Z,0.70
2022-12-19T04:05:25.357Z,0.70
2022-12-19T04:07:54.414Z,0.70
2022-12-19T04:10:23.375Z,0.70
2022-12-19T04:13:13.899Z,0.70
2022-12-19T04:15:47.089Z,0.70
2022-12-19T04:18:21.409Z,0.70
2022-12-19T04:20:55.934Z,0.70
2022-12-19T04:23:31.720Z,0.70
2022-12-19T04:26:01.414Z,0.70
2022-12-19T04:28:38.051Z,0.70
2022-12-19T04:31:05.817Z,0.60
2022-12-19T04:33:32.909Z,0.60
2022-12-19T04:36:00.546Z,0.60
2022-12-19T04:38:28.087Z,0.60
2022-12-19T04:40:59.207Z,0.60
2022-12-19T04:43:26.164Z,0.50
2022-12-19T04:45:57.338Z,0.50
2022-12-19T04:48:25.034Z,0.40
2022-12-19T04:50:52.543Z,0.30
2022-12-19T04:53:22.922Z,0.30
2022-12-19T04:55:53.541Z,0.20
2022-12-19T04:58:24.575Z,0.20
2022-12-19T05:00:55.830Z,0.20
2022-12-19T05:03:26.761Z,0.10
2022-12-19T05:05:57.113Z,0.10
2022-12-19T05:08:24.413Z,0.10
2022-12-19T05:11:02.672Z,0.10
2022-12-19T05:13:30.608Z,0.10
2022-12-19T05:15:58.712Z,0.00
2022-12-19T05:18:27.174Z,0.00
2022-12-19T05:20:54.536Z,0.00
2022-12-19T05:23:26.248Z,0.00
2022-12-19T05:25:57.218Z,-0.10
2022-12-19T05:28:24.284Z,-0.10
2022-12-19T05:30:52.674Z,-0.10
2022-12-19T05:33:21.111Z,-0.10
2022-12-19T05:35:48.141Z,-0.10
2022-12-19T05:38:15.486Z,-0.10
2022-12-19T05:40:45.496Z,-0.10
2022-12-19T05:43:15.901Z,0.00
2022-12-19T05:45:49.755Z,0.00
2022-12-19T05:48:16.872Z,0.00
2022-12-19T05:50:52.859Z,0.00
2022-12-19T05:53:26.115Z,0.00
2022-12-19T05:55:54.699Z,0.10
2022-12-19T05:58:21.916Z,0.10
2022-12-19T06:00:49.272Z,0.10
2022-12-19T06:03:16.365Z,0.10
2022-12-19T06:05:43.712Z,0.10
2022-12-19T06:08:12.502Z,0.10
2022-12-19T06:10:43.322Z,0.10
2022-12-19T06:13:10.644Z,0.10
2022-12-19T06:15:43.235Z,0.00
2022-12-19T06:18:11.386Z,0.10
2022-12-19T06:20:39.196Z,0.00
2022-12-19T06:23:10.654Z,0.00
2022-12-19T06:25:38.190Z,0.00
2022-12-19T06:28:05.648Z,-0.10
2022-12-19T06:30:32.586Z,-0.10
2022-12-19T06:33:01.253Z,-0.10
2022-12-19T06:35:28.505Z,-0.10
2022-12-19T06:38:00.790Z,-0.10
2022-12-19T06:40:46.714Z,-0.20
2022-12-19T06:43:17.908Z,-0.20
2022-12-19T06:45:45.353Z,-0.20
2022-12-19T06:48:12.710Z,-0.30
2022-12-19T06:50:40.377Z,-0.30
2022-12-19T06:53:07.474Z,-0.30
2022-12-19T06:55:36.479Z,-0.20
2022-12-19T06:58:04.991Z,-0.20
2022-12-19T07:00:38.287Z,-0.20
2022-12-19T07:03:08.325Z,-0.20
2022-12-19T07:05:36.109Z,-0.20
2022-12-19T07:08:04.010Z,-0.20
2022-12-19T07:10:31.198Z,-0.20
2022-12-19T07:12:58.293Z,-0.10
2022-12-19T07:15:25.510Z,-0.10
2022-12-19T07:17:53.285Z,-0.10
2022-12-19T07:20:21.499Z,0.00
2022-12-19T07:22:48.736Z,0.00
2022-12-19T07:25:17.870Z,0.00
2022-12-19T07:27:45.455Z,0.00
2022-12-19T07:30:16.916Z,0.10
2022-12-19T07:32:44.167Z,0.10
2022-12-19T07:35:17.073Z,0.10
2022-12-19T07:37:44.022Z,0.20
2022-12-19T07:40:14.270Z,0.20
2022-12-19T07:42:41.277Z,0.20
2022-12-19T07:45:11.545Z,0.30
2022-12-19T07:47:42.780Z,0.30
2022-12-19T07:50:13.847Z,0.30
2022-12-19T07:52:44.336Z,0.40
2022-12-19T07:55:11.570Z,0.40
2022-12-19T07:57:38.588Z,0.40
2022-12-19T08:00:09.225Z,0.40
2022-12-19T08:02:36.659Z,0.50
2022-12-19T08:05:06.070Z,0.50
2022-12-19T08:07:34.249Z,0.50
2022-12-19T08:10:01.715Z,0.50
2022-12-19T08:12:28.905Z,0.50
2022-12-19T08:14:59.688Z,0.50
2022-12-19T08:17:26.642Z,0.60
2022-12-19T08:19:58.834Z,0.60
2022-12-19T08:22:26.041Z,0.60
2022-12-19T08:24:57.868Z,0.60
2022-12-19T08:27:25.638Z,0.60
2022-12-19T08:29:52.739Z,0.60
2022-12-19T08:32:21.682Z,0.60
2022-12-19T08:34:49.799Z,0.60
2022-12-19T08:37:21.173Z,0.60
2022-12-19T08:39:48.877Z,0.60
2022-12-19T08:42:19.019Z,0.60
2022-12-19T08:44:46.201Z,0.60
2022-12-19T08:47:13.252Z,0.60
2022-12-19T08:49:40.682Z,0.60
2022-12-19T08:52:07.899Z,0.60
2022-12-19T08:54:34.936Z,0.60
2022-12-19T08:57:06.071Z,0.60
2022-12-19T08:59:33.196Z,0.70
2022-12-19T09:02:01.528Z,0.70
2022-12-19T09:06:00.497Z,0.70
2022-12-19T09:07:16.619Z,0.70
2022-12-19T09:09:44.618Z,0.70
2022-12-19T09:12:13.261Z,0.70
2022-12-19T09:14:40.341Z,0.70
2022-12-19T09:17:07.400Z,0.70
2022-12-19T09:19:34.794Z,0.80
2022-12-19T09:22:04.262Z,0.80
2022-12-19T09:24:35.579Z,0.80
2022-12-19T09:27:02.734Z,0.80
2022-12-19T09:29:35.673Z,0.80
2022-12-19T09:32:07.102Z,0.80
2022-12-19T09:34:40.689Z,0.80
2022-12-19T09:37:08.784Z,0.80
2022-12-19T09:39:41.079Z,0.80
2022-12-19T09:42:26.722Z,0.80
2022-12-19T09:45:15.511Z,0.90
2022-12-19T09:47:50.226Z,0.90
2022-12-19T09:50:26.151Z,0.90
2022-12-19T09:52:57.829Z,0.90
2022-12-19T09:55:36.930Z,0.90
2022-12-19T09:58:08.619Z,1.00
2022-12-19T10:00:44.774Z,1.00
2022-12-19T10:03:18.523Z,1.10
2022-12-19T10:07:10.429Z,1.20
2022-12-19T10:09:10.046Z,1.20
2022-12-19T10:12:38.548Z,1.30
2022-12-19T10:14:37.010Z,1.30
2022-12-19T10:17:25.442Z,1.40
2022-12-19T10:20:04.567Z,1.50
2022-12-19T10:22:50.165Z,1.50
2022-12-19T10:25:38.853Z,1.50
2022-12-19T10:28:11.613Z,1.50
2022-12-19T10:31:09.901Z,1.50
2022-12-19T10:33:45.843Z,1.50
2022-12-19T10:36:14.067Z,1.60
2022-12-19T10:38:52.024Z,1.60
2022-12-19T10:41:30.282Z,1.60
2022-12-19T10:44:05.892Z,1.60
2022-12-19T10:46:51.935Z,1.60
2022-12-19T10:49:20.124Z,1.60
2022-12-19T10:51:56.335Z,1.60
2022-12-19T10:54:33.344Z,1.60
2022-12-19T10:57:20.927Z,1.70
2022-12-19T11:00:08.245Z,1.70
2022-12-19T11:02:41.197Z,1.70
2022-12-19T11:05:26.597Z,1.70
2022-12-19T11:08:08.898Z,1.70
2022-12-19T11:13:25.840Z,1.70
2022-12-19T11:17:42.860Z,1.80
2022-12-19T11:24:07.933Z,1.80
2022-12-19T11:29:19.662Z,1.80
2022-12-19T11:29:26.455Z,1.80
2022-12-19T11:29:30.356Z,1.70
2022-12-19T11:30:26.151Z,1.70
2022-12-19T11:34:04.013Z,1.80
2022-12-19T11:36:39.527Z,1.80
2022-12-19T11:39:12.335Z,1.80
2022-12-19T11:41:43.865Z,1.80
2022-12-19T11:44:22.934Z,1.80
2022-12-19T11:47:04.035Z,1.80
2022-12-19T11:49:46.271Z,1.80
2022-12-19T11:55:23.064Z,1.90
2022-12-19T11:57:50.236Z,2.00
2022-12-19T12:00:21.024Z,2.00
2022-12-19T12:03:19.512Z,2.00
2022-12-19T12:05:47.485Z,2.00
2022-12-19T12:10:23.955Z,2.00
2022-12-19T12:19:33.842Z,2.00
2022-12-19T12:26:13.263Z,2.00
2022-12-19T12:31:00.019Z,2.00
2022-12-19T12:31:16.106Z,2.10
2022-12-19T12:31:44.389Z,2.10
2022-12-19T12:31:52.919Z,2.10
2022-12-19T12:31:57.579Z,2.10
2022-12-19T12:35:33.126Z,2.10
2022-12-19T12:38:35.441Z,2.10
2022-12-19T12:41:07.045Z,2.10
2022-12-19T12:43:52.917Z,2.10
2022-12-19T12:46:22.546Z,2.10
2022-12-19T12:49:02.161Z,2.10
2022-12-19T12:51:30.168Z,2.10
2022-12-19T12:54:08.082Z,2.10
2022-12-19T12:56:35.809Z,2.10
2022-12-19T12:59:02.860Z,2.10
2022-12-19T13:01:30.152Z,2.10
2022-12-19T13:03:57.371Z,2.20
2022-12-19T13:06:32.689Z,2.20
2022-12-19T13:09:08.718Z,2.20
2022-12-19T13:11:56.001Z,2.20
2022-12-19T13:14:35.337Z,2.30
2022-12-19T13:17:03.388Z,2.30
2022-12-19T13:19:34.578Z,2.30
2022-12-19T13:22:04.791Z,2.30
2022-12-19T13:24:46.164Z,2.30
2022-12-19T13:27:19.330Z,2.30
2022-12-19T13:29:54.095Z,2.30
2022-12-19T13:32:21.755Z,2.20
2022-12-19T13:35:10.610Z,2.30
2022-12-19T13:39:58.422Z,2.30
2022-12-19T13:40:44.827Z,2.30
2022-12-19T13:43:30.570Z,2.30
2022-12-19T13:45:58.855Z,2.30
2022-12-19T13:48:31.469Z,2.30
2022-12-19T13:51:00.468Z,2.20
2022-12-19T13:53:29.547Z,2.30
2022-12-19T13:56:00.752Z,2.20
2022-12-19T13:58:33.039Z,2.20
2022-12-19T14:01:06.973Z,2.20
2022-12-19T14:03:46.040Z,2.30
2022-12-19T14:06:19.963Z,2.30
2022-12-19T14:08:48.359Z,2.30
2022-12-19T14:12:28.764Z,2.30
2022-12-19T14:15:13.234Z,2.30
2022-12-19T14:17:37.200Z,2.30
2022-12-19T14:21:14.593Z,2.30
2022-12-19T14:23:00.826Z,2.30
2022-12-19T14:28:16.785Z,2.40
2022-12-19T14:29:03.730Z,2.40
2022-12-19T14:31:31.045Z,2.40
2022-12-19T14:34:35.157Z,2.40
2022-12-19T14:36:55.821Z,2.40
2022-12-19T14:39:29.371Z,2.40
2022-12-19T14:43:30.282Z,2.40
2022-12-19T14:52:08.148Z,2.40
2022-12-19T14:54:09.466Z,2.40
2022-12-19T14:54:09.662Z,2.40
2022-12-19T14:57:16.147Z,2.40
2022-12-19T15:01:08.375Z,2.40
2022-12-19T15:03:15.489Z,2.40
2022-12-19T15:05:43.031Z,2.40
2022-12-19T15:08:11.278Z,2.40
2022-12-19T15:11:07.707Z,2.50
2022-12-19T15:14:54.921Z,2.50
2022-12-19T15:16:41.958Z,2.50
2022-12-19T15:19:13.258Z,2.50
2022-12-19T15:21:40.210Z,2.50
2022-12-19T15:24:10.347Z,2.50
2022-12-19T15:26:47.064Z,2.50
2022-12-19T15:29:19.888Z,2.50
2022-12-19T15:31:52.671Z,2.50
2022-12-19T15:34:36.756Z,2.50
2022-12-19T15:37:05.302Z,2.60
2022-12-19T15:39:32.462Z,2.50
2022-12-19T15:41:59.906Z,2.50
2022-12-19T15:44:37.547Z,2.60
2022-12-19T15:47:06.390Z,2.50
2022-12-19T15:49:35.325Z,2.60
2022-12-19T15:52:03.266Z,2.60
2022-12-19T15:57:33.117Z,2.60
2022-12-19T16:00:02.254Z,2.60
2022-12-19T16:05:26.101Z,2.60
2022-12-19T16:08:00.134Z,2.60
2022-12-19T16:10:27.408Z,2.60
2022-12-19T16:13:01.522Z,2.70
2022-12-19T16:15:32.453Z,2.70
2022-12-19T16:18:00.368Z,2.70
2022-12-19T16:20:32.333Z,2.70
2022-12-19T16:22:59.362Z,2.70
2022-12-19T16:25:37.811Z,2.70
2022-12-19T16:28:05.802Z,2.70
2022-12-19T16:30:34.001Z,2.80
2022-12-19T16:33:10.181Z,2.80
2022-12-19T16:38:31.347Z,2.80
2022-12-19T16:41:02.488Z,2.70
2022-12-19T16:43:37.703Z,2.70
2022-12-19T16:46:11.247Z,2.80
2022-12-19T16:48:42.789Z,2.80
2022-12-19T16:51:21.577Z,2.80
2022-12-19T16:53:52.980Z,2.80
2022-12-19T16:56:35.430Z,2.80
2022-12-19T16:59:04.766Z,2.80
2022-12-19T17:01:33.292Z,2.90
2022-12-19T17:04:04.393Z,2.90
2022-12-19T17:06:31.715Z,2.90
2022-12-19T17:09:01.617Z,2.90
2022-12-19T17:11:29.202Z,2.90
2022-12-19T17:14:05.773Z,2.90
2022-12-19T17:16:36.775Z,2.90
2022-12-19T17:19:08.865Z,2.90
2022-12-19T17:21:38.529Z,2.90
2022-12-19T17:24:12.830Z,2.90
2022-12-19T17:26:44.357Z,2.90
2022-12-19T17:29:14.675Z,2.90
2022-12-19T17:31:42.527Z,2.90
2022-12-19T17:34:23.888Z,2.90
2022-12-19T17:36:54.130Z,2.90
2022-12-19T17:39:22.473Z,2.90
2022-12-19T17:41:53.305Z,2.90
2022-12-19T17:44:20.238Z,2.90
2022-12-19T17:46:47.648Z,2.90
2022-12-19T17:49:27.576Z,2.90
2022-12-19T17:51:54.704Z,3.00
2022-12-19T17:54:22.606Z,3.00
2022-12-19T17:56:50.056Z,3.00
2022-12-19T17:59:17.231Z,3.00
2022-12-19T18:01:46.761Z,3.00
2022-12-19T18:04:14.992Z,2.90
2022-12-19T18:06:42.542Z,3.00
2022-12-19T18:09:20.519Z,3.00
2022-12-19T18:11:48.198Z,3.00
2022-12-19T18:14:15.203Z,3.00
2022-12-19T18:16:43.130Z,3.00
2022-12-19T18:19:19.999Z,3.00
2022-12-19T18:21:47.226Z,3.00
2022-12-19T18:24:16.717Z,3.00
2022-12-19T18:26:44.620Z,3.00
2022-12-19T18:29:11.952Z,3.00
2022-12-19T18:31:43.450Z,3.00
2022-12-19T18:34:19.717Z,3.00
2022-12-19T18:36:46.696Z,3.00
2022-12-19T18:39:33.951Z,3.00
2022-12-19T18:42:00.901Z,3.00
2022-12-19T18:44:28.094Z,3.00
2022-12-19T18:46:55.235Z,3.00
2022-12-19T18:49:23.589Z,3.00
2022-12-19T18:51:50.524Z,3.00
2022-12-19T18:54:18.741Z,3.00
2022-12-19T18:56:46.296Z,3.00
2022-12-19T18:59:13.423Z,3.00
2022-12-19T19:01:42.961Z,3.00
2022-12-19T19:04:12.328Z,3.00
2022-12-19T19:06:42.117Z,3.00
2022-12-19T19:09:16.498Z,3.00
2022-12-19T19:11:43.448Z,3.00
2022-12-19T19:14:11.511Z,3.00
2022-12-19T19:16:40.480Z,3.00
2022-12-19T19:19:08.995Z,3.00
2022-12-19T19:21:36.311Z,3.00
2022-12-19T19:24:09.323Z,2.90
2022-12-19T19:26:36.240Z,3.00
2022-12-19T19:29:04.010Z,3.00
2022-12-19T19:31:34.658Z,2.90
2022-12-19T19:34:14.221Z,2.90
2022-12-19T19:36:43.053Z,3.00
2022-12-19T19:39:11.048Z,3.00
2022-12-19T19:41:38.082Z,3.00
2022-12-19T19:44:05.338Z,3.00
2022-12-19T19:46:32.929Z,3.00
2022-12-19T19:48:59.951Z,3.00
2022-12-19T20:44:02.488Z,3.00
2022-12-19T20:46:30.711Z,3.00
2022-12-19T20:48:57.917Z,3.00
2022-12-19T20:51:25.039Z,3.00
2022-12-19T20:53:53.778Z,3.10
2022-12-19T20:56:23.280Z,3.10
2022-12-19T20:58:50.864Z,3.00
2022-12-19T21:01:21.989Z,3.10
2022-12-19T21:03:49.470Z,3.10
2022-12-19T21:06:18.889Z,3.10
2022-12-19T21:08:46.350Z,3.20
2022-12-19T21:11:14.194Z,3.20
2022-12-19T21:13:41.917Z,3.20
2022-12-19T21:16:11.308Z,3.20
2022-12-19T21:18:39.332Z,3.20
2022-12-19T21:21:09.856Z,3.30
2022-12-19T21:23:36.966Z,3.20
2022-12-19T21:26:04.795Z,3.30
2022-12-19T21:28:33.343Z,3.30
2022-12-19T21:31:20.760Z,3.30
2022-12-19T21:33:49.130Z,3.30
2022-12-19T21:36:20.496Z,3.30
2022-12-19T21:38:48.820Z,3.30
2022-12-19T21:41:21.714Z,3.40
2022-12-19T21:43:51.998Z,3.40
2022-12-19T21:46:23.461Z,3.50
2022-12-19T21:48:51.617Z,3.50
2022-12-19T21:51:19.698Z,3.50
2022-12-19T21:53:47.023Z,3.50
2022-12-19T21:56:32.663Z,3.50
2022-12-19T21:59:02.018Z,3.50
2022-12-19T22:01:29.863Z,3.60
2022-12-19T22:04:01.278Z,3.60
2022-12-19T22:06:29.564Z,3.60
2022-12-19T22:08:56.786Z,3.70
2022-12-19T22:11:24.327Z,3.70
2022-12-19T22:13:51.650Z,3.70
2022-12-19T22:16:18.852Z,3.70
2022-12-19T22:18:45.971Z,3.70
2022-12-19T22:21:13.987Z,3.70
2022-12-19T22:23:41.378Z,3.80
2022-12-19T22:26:09.946Z,3.80
2022-12-19T22:28:37.820Z,3.80
2022-12-19T22:31:14.901Z,3.90
2022-12-19T22:33:41.818Z,3.90
2022-12-19T22:36:08.836Z,3.90
2022-12-19T22:38:35.794Z,4.00
2022-12-19T22:41:04.089Z,4.00
2022-12-19T22:43:31.175Z,4.00
2022-12-19T22:45:58.875Z,4.00
2022-12-19T22:48:25.770Z,4.00
2022-12-19T22:50:52.728Z,4.10
2022-12-19T22:53:19.903Z,4.10
2022-12-19T22:55:46.778Z,4.10
2022-12-19T22:58:14.071Z,4.10
2022-12-19T23:00:42.246Z,4.10
2022-12-19T23:03:09.259Z,4.20
2022-12-19T23:05:36.872Z,4.10
2022-12-19T23:08:04.224Z,4.20
2022-12-19T23:10:31.119Z,4.20
2022-12-19T23:12:58.026Z,4.20
2022-12-19T23:15:25.076Z,4.30
2022-12-19T23:17:51.941Z,4.30
2022-12-19T23:20:18.823Z,4.30
2022-12-19T23:22:45.760Z,4.30
2022-12-19T23:25:12.653Z,4.30
2022-12-19T23:27:40.346Z,4.30
2022-12-19T23:30:07.764Z,4.30
2022-12-19T23:32:34.668Z,4.40
2022-12-19T23:35:01.525Z,4.40
2022-12-19T23:37:28.532Z,4.40
2022-12-19T23:39:55.371Z,4.40
2022-12-19T23:42:22.261Z,4.40
2022-12-19T23:44:49.567Z,4.50
2022-12-19T23:47:16.913Z,4.50
2022-12-19T23:49:43.829Z,4.60
2022-12-19T23:52:10.872Z,4.60
2022-12-19T23:54:47.101Z,4.60
2022-12-19T23:57:14.328Z,4.60
2022-12-19T23:59:41.484Z,4.60
